Time;durP1;ratioP1;P1;durP2;ratioP2;P2;SDS_P1;SDS_P2;PMS_P1;PMS_P2;Temp;Humidity;BMP_temperature;BMP_pressure;BME280_temperature;BME280_humidity;BME280_pressure;Samples;Min_cycle;Max_cycle;Signal;HPM_P1;HPM_P2
2022/08/11 00:04:33;;;;;;;1.23;0.90;;;21.40;57.60;;;20.27;46.07;100612.03;10324490;28;97343;-94
2022/08/11 00:09:38;;;;;;;1.35;0.90;;;21.40;57.80;;;20.26;46.54;100592.34;10328687;28;97391;-93
2022/08/11 00:14:43;;;;;;;1.48;0.90;;;21.40;57.90;;;20.34;45.92;100602.03;10306680;28;96984;-94
2022/08/11 00:19:47;;;;;;;2.03;0.90;;;21.50;58.00;;;20.34;46.45;100601.22;10324988;28;97947;-93
2022/08/11 00:25:21;;;;;;;1.65;0.95;;;21.50;57.90;;;20.41;46.04;100593.88;10342438;28;96592;-92
2022/08/11 00:30:24;;;;;;;1.38;0.90;;;21.60;58.00;;;20.41;45.92;100585.78;10341208;28;96664;-92
2022/08/11 00:35:30;;;;;;;1.52;1.20;;;21.50;57.90;;;20.37;46.04;100585.38;10300014;28;97005;-91
2022/08/11 00:41:19;;;;;;;1.83;0.80;;;21.60;58.00;;;20.30;46.22;100593.56;10325936;28;96993;-92
2022/08/11 00:46:24;;;;;;;1.42;1.00;;;21.50;58.10;;;20.22;46.37;100582.22;10315369;28;97457;-91
2022/08/11 00:51:52;;;;;;;2.05;0.88;;;21.40;58.20;;;20.17;46.39;100584.75;10341084;28;96715;-92
2022/08/11 00:57:44;;;;;;;1.45;1.00;;;21.40;58.50;;;20.12;46.62;100588.13;10325319;28;97475;-90
2022/08/11 01:03:37;;;;;;;3.07;0.90;;;21.30;58.50;;;20.08;46.95;100588.78;10314542;28;98523;-92
2022/08/11 01:08:56;;;;;;;2.03;0.90;;;21.30;58.70;;;20.12;46.88;100593.50;10317951;28;96993;-91
2022/08/11 01:14:14;;;;;;;1.50;1.00;;;21.30;58.70;;;20.14;46.95;100585.19;10329463;28;96639;-95
2022/08/11 01:19:20;;;;;;;3.83;1.00;;;21.30;58.80;;;20.15;46.70;100581.44;10353415;28;97411;-96
2022/08/11 01:24:51;;;;;;;1.83;1.02;;;21.30;58.90;;;20.16;46.94;100578.53;10342994;28;96605;-96
2022/08/11 01:30:30;;;;;;;2.15;1.10;;;21.40;59.00;;;20.16;47.51;100569.63;10337943;28;96695;-95
2022/08/11 01:36:41;;;;;;;3.97;0.90;;;21.40;58.90;;;20.19;47.13;100567.28;10312835;28;96642;-93
2022/08/11 01:48:30;;;;;;;1.25;0.80;;;21.40;59.10;;;20.23;47.52;100562.28;10335114;28;96614;-94
2022/08/11 01:54:08;;;;;;;4.90;1.10;;;21.40;58.90;;;20.23;47.40;100565.81;10340179;28;96630;-94
2022/08/11 01:59:38;;;;;;;3.47;1.00;;;21.50;59.10;;;20.22;47.60;100560.63;10319925;28;97692;-94
2022/08/11 02:05:01;;;;;;;1.15;0.80;;;21.40;59.10;;;20.17;47.64;100555.09;10337338;28;96830;-96
2022/08/11 02:16:48;;;;;;;4.15;0.90;;;21.30;59.40;;;19.98;48.26;100549.66;10328358;28;96741;-95
2022/08/11 02:28:08;;;;;;;3.22;0.73;;;21.20;59.90;;;20.01;48.31;100556.47;10327212;28;97298;-93
2022/08/11 02:33:25;;;;;;;1.23;0.93;;;21.20;60.00;;;20.05;47.97;100549.59;10339097;28;96778;-93
2022/08/11 02:38:44;;;;;;;2.28;1.20;;;21.30;59.90;;;20.10;48.29;100546.22;10337839;28;96865;-94
2022/08/11 02:44:35;;;;;;;3.38;1.17;;;21.30;59.80;;;20.12;47.90;100542.25;10338102;28;96794;-94
2022/08/11 02:49:54;;;;;;;4.32;1.10;;;21.30;59.80;;;20.09;48.27;100539.16;10295250;28;97077;-94
2022/08/11 02:55:46;;;;;;;1.15;0.77;;;21.30;59.90;;;19.98;48.42;100535.34;10329135;28;96889;-94
2022/08/11 03:01:20;;;;;;;3.88;1.73;;;21.20;60.50;;;19.90;48.49;100536.41;10327318;28;96765;-94
2022/08/11 03:06:35;;;;;;;1.40;0.98;;;21.10;60.30;;;19.83;48.72;100537.53;10338634;28;96461;-94
2022/08/11 03:17:35;;;;;;;2.38;1.00;;;21.00;60.40;;;19.67;48.59;100539.75;10312157;28;96464;-94
2022/08/11 03:23:02;;;;;;;1.67;1.02;;;20.90;60.50;;;19.62;48.47;100544.13;10333618;28;96660;-95
2022/08/11 03:28:28;;;;;;;1.67;1.10;;;20.90;60.70;;;19.52;48.62;100542.72;10331674;28;96709;-94
2022/08/11 03:34:01;;;;;;;1.92;0.90;;;20.80;60.80;;;19.43;49.02;100545.88;10305573;28;96559;-95
2022/08/11 03:39:35;;;;;;;2.22;0.98;;;20.70;60.90;;;19.39;49.23;100547.38;10293397;28;96844;-94
2022/08/11 03:44:59;;;;;;;1.73;0.80;;;20.60;61.10;;;19.31;49.26;100551.16;10317705;28;96682;-94
2022/08/11 03:50:38;;;;;;;4.43;1.38;;;20.60;61.20;;;19.20;49.44;100551.84;10332099;28;96893;-94
2022/08/11 03:56:38;;;;;;;11.18;1.70;;;20.50;61.40;;;19.17;50.15;100557.66;10336826;28;97550;-90
2022/08/11 04:02:37;;;;;;;3.80;2.03;;;20.40;62.30;;;19.14;50.14;100563.47;10304598;28;98556;-90
2022/08/11 04:08:19;;;;;;;2.85;1.17;;;20.30;62.20;;;19.11;50.58;100553.13;10308219;28;97962;-90
2022/08/11 04:19:52;;;;;;;3.30;1.20;;;20.30;62.70;;;19.11;51.06;100563.88;10331572;28;97556;-86
2022/08/11 04:25:24;;;;;;;7.07;3.80;;;20.30;62.80;;;19.13;51.28;100561.78;10337452;28;97120;-87
2022/08/11 04:31:04;;;;;;;4.45;1.80;;;20.30;63.00;;;19.22;51.18;100555.13;10316717;28;98478;-87
2022/08/11 05:05:32;;;;;;;3.08;1.40;;;21.00;63.60;;;19.98;51.25;100563.13;10336971;28;96725;-89
2022/08/11 05:11:15;;;;;;;1.42;1.10;;;21.10;63.40;;;20.20;50.60;100568.13;10314380;28;96962;-89
2022/08/11 06:00:14;;;;;;;2.75;1.00;;;23.00;57.90;;;21.84;44.45;100586.06;10302034;28;97941;-90
2022/08/11 06:05:17;;;;;;;2.60;0.95;;;23.10;57.40;;;21.96;44.03;100583.38;10335017;28;96619;-91
2022/08/11 06:10:34;;;;;;;1.48;1.10;;;23.20;56.90;;;22.10;44.29;100581.28;10325845;28;96637;-90
2022/08/11 06:15:48;;;;;;;1.55;0.90;;;23.40;57.00;;;22.22;43.04;100581.31;10281316;28;96630;-92
2022/08/11 06:20:57;;;;;;;5.55;1.00;;;23.50;56.50;;;22.39;42.01;100587.66;10316357;28;98367;-91
2022/08/11 06:26:01;;;;;;;3.95;1.40;;;23.60;55.30;;;22.63;41.73;100583.03;10317105;28;96624;-90
2022/08/11 06:31:12;;;;;;;1.75;0.95;;;23.80;54.90;;;22.90;41.24;100583.34;10334633;28;96613;-91
2022/08/11 06:36:33;;;;;;;1.80;0.88;;;24.10;54.60;;;23.17;40.95;100573.63;10358033;28;96453;-90
2022/08/11 06:41:50;;;;;;;1.85;1.00;;;24.30;54.40;;;23.36;40.32;100571.53;10345083;28;96593;-91
2022/08/11 06:46:59;;;;;;;1.08;0.75;;;24.60;53.90;;;23.51;39.93;100571.00;10299129;28;96535;-91
2022/08/11 06:52:12;;;;;;;1.65;1.10;;;24.70;53.50;;;23.63;39.99;100560.94;10355270;28;96555;-91
2022/08/11 07:03:11;;;;;;;3.63;0.90;;;25.00;53.00;;;23.66;38.93;100557.72;10331732;28;97047;-90
2022/08/11 07:30:46;;;;;;;1.80;1.13;;;25.20;51.80;;;23.93;38.37;100555.19;10300612;28;96575;-91
2022/08/11 07:35:58;;;;;;;1.42;0.85;;;25.20;51.80;;;24.03;37.19;100559.94;10299832;28;96993;-91
2022/08/11 07:41:02;;;;;;;2.63;1.00;;;25.20;51.20;;;24.08;38.08;100554.59;10325296;28;96527;-91
2022/08/11 07:56:49;;;;;;;2.30;1.13;;;25.60;51.30;;;24.64;37.17;100552.69;10302834;28;96932;-92
2022/08/11 08:18:23;;;;;;;1.70;0.98;;;26.00;50.20;;;24.94;36.50;100521.50;10336935;28;96630;-92
2022/08/11 08:23:32;;;;;;;3.75;0.98;;;26.10;50.40;;;25.15;36.15;100517.16;10320236;28;96825;-91
2022/08/11 08:28:36;;;;;;;1.77;0.93;;;26.30;50.30;;;25.29;36.32;100519.19;10333224;28;96609;-91
2022/08/11 08:33:41;;;;;;;6.30;1.08;;;26.50;50.10;;;25.27;35.24;100504.22;10317893;28;96559;-91
2022/08/11 08:38:51;;;;;;;2.22;1.10;;;26.50;49.50;;;25.38;35.25;100500.53;10343009;28;96549;-89
2022/08/11 08:44:02;;;;;;;0.85;0.75;;;26.50;49.20;;;25.65;34.88;100500.47;10338708;28;96564;-92
2022/08/11 08:49:40;;;;;;;1.88;0.85;;;26.70;48.70;;;25.74;33.76;100492.69;10333564;28;96698;-88
2022/08/11 08:54:54;;;;;;;1.80;1.10;;;26.90;48.00;;;25.81;33.43;100499.53;10315487;28;96649;-92
2022/08/11 08:59:59;;;;;;;1.33;0.80;;;27.00;47.60;;;25.80;32.91;100491.63;10320810;28;97018;-91
2022/08/11 09:05:04;;;;;;;3.33;0.90;;;27.00;47.10;;;25.70;32.48;100481.44;10335024;28;96667;-90
2022/08/11 09:10:10;;;;;;;1.27;0.80;;;27.00;46.40;;;25.89;32.09;100479.97;10337227;28;97380;-91
2022/08/11 09:15:15;;;;;;;1.65;1.00;;;27.10;46.10;;;26.08;31.72;100480.38;10328617;28;98424;-91
2022/08/11 09:20:25;;;;;;;3.07;0.80;;;27.30;45.80;;;26.39;32.07;100473.19;10321724;28;97442;-91
2022/08/11 09:30:54;;;;;;;2.65;0.88;;;27.60;43.80;;;26.36;30.42;100467.44;10336503;28;96621;-91
2022/08/11 09:40:27;;;;;;;3.70;0.85;;;27.60;44.20;;;26.62;30.20;100461.00;10337047;28;96860;-89
2022/08/11 09:41:22;;;;;;;1.77;0.88;;;27.80;44.30;;;26.93;29.43;100453.75;10323472;28;97512;-90
2022/08/11 09:46:29;;;;;;;2.05;0.75;;;28.10;44.00;;;27.11;28.66;100459.78;10362014;28;97064;-88
2022/08/11 09:51:33;;;;;;;1.27;0.70;;;28.30;43.40;;;27.25;28.09;100454.63;10333758;28;96997;-87
2022/08/11 10:02:01;;;;;;;1.63;0.80;;;28.50;42.40;;;27.08;27.45;100433.06;10332114;28;98014;-90
2022/08/11 10:07:09;;;;;;;3.15;0.68;;;28.40;42.00;;;27.31;28.25;100427.06;10352731;28;96704;-90
2022/08/11 10:12:41;;;;;;;3.05;0.88;;;28.60;42.50;;;27.28;27.62;100426.78;10356506;28;96564;-87
2022/08/11 10:28:35;;;;;;;1.15;0.60;;;28.80;42.10;;;27.64;27.77;100401.09;10357875;28;96565;-87
2022/08/11 10:34:00;;;;;;;1.08;0.60;;;28.90;41.80;;;27.79;27.75;100388.56;10331362;28;96604;-93
2022/08/11 10:39:05;;;;;;;2.47;0.77;;;29.10;42.00;;;27.94;26.87;100400.22;10332878;28;97068;-93
2022/08/11 10:44:10;;;;;;;1.05;0.80;;;29.30;41.50;;;27.97;26.32;100391.50;10318122;28;96651;-94
2022/08/11 10:49:16;;;;;;;1.05;0.57;;;29.20;40.40;;;27.88;26.48;100381.41;10332558;28;96888;-92
2022/08/11 10:59:46;;;;;;;1.73;0.75;;;29.40;41.60;;;28.58;25.70;100370.47;10330046;28;96567;-89
2022/08/11 11:05:11;;;;;;;0.85;0.57;;;29.80;40.10;;;28.85;24.33;100359.03;10332948;28;96578;-87
2022/08/11 11:10:15;;;;;;;2.25;0.70;;;30.00;39.40;;;28.84;23.74;100352.75;10308966;28;96746;-81
2022/08/11 11:21:13;;;;;;;4.07;0.60;;;29.90;37.20;;;28.45;21.97;100352.78;10342812;28;96619;-82
2022/08/11 11:26:59;;;;;;;0.90;0.55;;;29.70;37.10;;;28.46;22.03;100346.19;10370480;28;96500;-83
2022/08/11 11:32:27;;;;;;;1.63;0.70;;;29.60;36.60;;;28.05;23.41;100348.31;10319449;28;96610;-82
2022/08/11 11:37:35;;;;;;;2.33;0.80;;;29.40;37.30;;;27.83;25.54;100349.50;10289035;28;96616;-84
2022/08/11 11:42:40;;;;;;;2.08;0.90;;;29.20;38.90;;;27.40;26.00;100351.75;10292359;28;96702;-82
2022/08/11 11:47:44;;;;;;;0.95;0.70;;;28.90;39.80;;;27.46;26.47;100338.91;10290509;28;96558;-83
2022/08/11 11:52:47;;;;;;;0.95;0.47;;;28.70;40.20;;;27.78;26.19;100335.06;10304948;28;96567;-82
2022/08/11 12:03:22;;;;;;;1.25;0.45;;;29.30;40.10;;;28.50;25.11;100320.75;10330553;28;96668;-82
2022/08/11 12:08:26;;;;;;;1.15;0.40;;;29.70;39.70;;;28.74;25.69;100303.63;10327214;28;96601;-82
2022/08/11 12:13:39;;;;;;;1.67;0.50;;;30.00;39.90;;;28.97;25.05;100307.59;10342610;28;96603;-82
2022/08/11 12:18:45;;;;;;;1.10;0.65;;;30.30;39.60;;;29.08;24.67;100308.28;10321999;28;96646;-81
2022/08/11 12:29:13;;;;;;;2.45;0.73;;;30.70;39.10;;;28.74;25.04;100304.44;10336760;28;96601;-82
2022/08/11 12:34:16;;;;;;;0.95;0.55;;;30.40;39.10;;;28.62;25.45;100300.44;10336465;28;96645;-81
2022/08/11 12:45:26;;;;;;;0.88;0.50;;;30.30;39.30;;;28.73;25.25;100291.06;10338407;28;96655;-82
2022/08/11 12:45:26;;;;;;;0.85;0.45;;;30.40;39.40;;;29.31;25.53;100283.69;10312021;28;96521;-82
2022/08/11 13:06:42;;;;;;;1.35;0.60;;;30.70;39.80;;;28.54;26.31;100271.78;10318001;28;96660;-83
2022/08/11 13:17:23;;;;;;;1.15;0.75;;;30.10;40.70;;;28.85;26.12;100269.63;10344557;28;96735;-85
2022/08/11 13:22:49;;;;;;;1.47;0.50;;;30.30;40.60;;;28.93;26.30;100266.28;10313958;28;96546;-82
2022/08/11 13:27:57;;;;;;;0.70;0.40;;;30.30;40.60;;;28.80;26.18;100269.69;10335488;28;96603;-83
2022/08/11 13:33:06;;;;;;;0.70;0.43;;;30.20;40.30;;;28.63;26.29;100258.34;10315060;28;96997;-82
2022/08/11 13:38:12;;;;;;;0.40;0.40;;;29.90;40.50;;;28.57;26.95;100254.00;10338349;28;96604;-82
2022/08/11 13:43:23;;;;;;;1.00;0.57;;;29.80;40.80;;;28.25;26.04;100255.31;10331335;28;98448;-80
2022/08/11 13:48:27;;;;;;;1.17;0.60;;;29.50;40.30;;;27.98;26.26;100248.38;10320665;28;96773;-80
2022/08/11 13:53:31;;;;;;;4.15;0.68;;;29.40;40.30;;;27.72;26.51;100242.25;10333087;28;96721;-80
2022/08/11 13:58:34;;;;;;;2.05;0.90;;;29.10;40.30;;;27.81;26.28;100242.44;10324270;28;96576;-80
2022/08/11 14:03:44;;;;;;;0.95;0.50;;;29.10;40.50;;;27.72;25.77;100241.44;10322236;28;96766;-81
2022/08/11 14:09:09;;;;;;;3.72;0.50;;;29.00;39.90;;;27.60;26.31;100233.53;10331221;28;96927;-80
2022/08/11 14:14:21;;;;;;;0.80;0.60;;;28.90;40.10;;;27.59;25.68;100234.63;10325404;28;97400;-81
2022/08/11 14:19:25;;;;;;;1.70;0.50;;;28.90;39.80;;;27.49;26.19;100234.66;10345451;28;96994;-80
2022/08/11 14:24:30;;;;;;;0.73;0.50;;;28.80;39.50;;;27.35;25.61;100236.34;10329570;28;96612;-80
2022/08/11 14:29:37;;;;;;;0.88;0.47;;;28.70;39.40;;;27.34;25.93;100232.78;10323971;28;96720;-81
2022/08/11 14:34:52;;;;;;;1.52;0.50;;;28.60;39.40;;;27.32;26.59;100232.25;10331196;28;98353;-80
2022/08/11 14:47:03;;;;;;;1.63;0.70;;;28.70;40.00;;;27.24;26.21;100229.31;10326074;28;96735;-81
2022/08/11 14:51:00;;;;;;;0.40;0.40;;;28.60;40.40;;;27.48;26.71;100222.94;10322267;28;96606;-81
2022/08/11 15:06:49;;;;;;;3.92;0.57;;;28.60;40.20;;;27.32;26.84;100223.25;10335470;28;96746;-80
2022/08/11 15:12:07;;;;;;;1.33;0.60;;;28.60;40.50;;;27.31;27.73;100227.09;10346933;28;96875;-79
2022/08/11 15:17:34;;;;;;;1.13;0.50;;;28.60;41.00;;;27.18;27.83;100231.22;10298759;28;97344;-80
2022/08/11 15:39:23;;;;;;;0.90;0.50;;;28.60;42.10;;;27.29;28.90;100218.34;10313029;28;97222;-82
2022/08/11 15:45:47;;;;;;;2.58;0.60;;;28.60;42.40;;;27.21;29.10;100219.75;10311742;28;96629;-82
2022/08/11 15:50:09;;;;;;;2.25;0.52;;;28.50;42.50;;;27.01;29.71;100217.06;10314920;28;96998;-82
2022/08/11 15:55:16;;;;;;;2.95;0.70;;;28.30;42.90;;;26.89;29.57;100209.97;10341730;28;96905;-83
2022/08/11 16:05:42;;;;;;;2.08;0.93;;;28.10;43.30;;;26.77;29.87;100204.00;10334510;28;96665;-83
2022/08/11 16:10:56;;;;;;;0.70;0.50;;;28.00;43.40;;;26.72;29.72;100214.09;10309413;28;96679;-82
2022/08/11 16:16:13;;;;;;;1.02;0.65;;;28.00;43.40;;;26.50;30.34;100203.47;10313811;28;97241;-83
2022/08/11 16:21:24;;;;;;;1.70;0.60;;;27.90;43.70;;;26.39;30.43;100203.47;10329196;28;98223;-82
2022/08/11 16:26:42;;;;;;;0.70;0.43;;;27.70;43.70;;;26.37;30.55;100202.91;10340186;28;96591;-82
2022/08/11 16:32:19;;;;;;;2.35;0.85;;;27.60;44.00;;;26.32;31.15;100194.72;10321901;28;97757;-85
2022/08/11 16:48:13;;;;;;;1.10;0.50;;;27.50;44.30;;;26.14;31.43;100208.88;10319708;28;97879;-85
2022/08/11 16:53:38;;;;;;;1.10;0.60;;;27.40;44.50;;;26.00;30.98;100229.56;10335438;28;96592;-83
2022/08/11 16:59:13;;;;;;;2.38;0.80;;;27.20;44.40;;;25.48;32.18;100249.47;10326277;28;97422;-78
2022/08/11 17:16:12;;;;;;;2.00;0.80;;;25.80;47.20;;;23.98;36.33;100272.97;10313649;28;96695;-79
2022/08/11 17:21:25;;;;;;;2.58;0.70;;;25.40;48.70;;;23.63;37.44;100270.66;10333889;28;96628;-82
2022/08/11 17:26:55;;;;;;;1.70;1.00;;;25.00;49.60;;;23.40;38.03;100274.41;10308504;28;96692;-82
2022/08/11 17:37:25;;;;;;;1.02;0.73;;;24.50;50.60;;;23.09;38.44;100277.72;10294418;28;96632;-82
2022/08/11 18:04:11;;;;;;;1.20;0.60;;;24.00;51.20;;;22.73;39.00;100284.44;10326158;28;96669;-81
